sensor_id;sensor_type;location;lat;lon;timestamp;temperature;humidity
7684;DHT22;3884;48.616;12.872;2022-09-23T00:00:03;5.90;99.90
7684;DHT22;3884;48.616;12.872;2022-09-23T00:02:30;6.00;99.90
7684;DHT22;3884;48.616;12.872;2022-09-23T00:04:57;5.90;1.00
7684;DHT22;3884;48.616;12.872;2022-09-23T00:07:24;5.80;1.00
7684;DHT22;3884;48.616;12.872;2022-09-23T00:09:51;5.80;1.00
7684;DHT22;3884;48.616;12.872;2022-09-23T00:12:21;5.70;1.00
7684;DHT22;3884;48.616;12.872;2022-09-23T00:14:49;5.60;1.00
7684;DHT22;3884;48.616;12.872;2022-09-23T00:17:16;5.50;1.00
7684;DHT22;3884;48.616;12.872;2022-09-23T00:19:43;5.40;99.90
7684;DHT22;3884;48.616;12.872;2022-09-23T00:22:09;5.50;99.90
7684;DHT22;3884;48.616;12.872;2022-09-23T00:24:38;5.50;99.90
7684;DHT22;3884;48.616;12.872;2022-09-23T00:27:05;5.50;90.00
7684;DHT22;3884;48.616;12.872;2022-09-23T00:29:32;5.40;99.90
7684;DHT22;3884;48.616;12.872;2022-09-23T00:32:01;5.40;75.70
7684;DHT22;3884;48.616;12.872;2022-09-23T00:34:28;5.40;3.80
7684;DHT22;3884;48.616;12.872;2022-09-23T00:36:55;5.40;25.90
7684;DHT22;3884;48.616;12.872;2022-09-23T00:39:22;5.40;99.90
7684;DHT22;3884;48.616;12.872;2022-09-23T00:41:49;5.40;99.90
7684;DHT22;3884;48.616;12.872;2022-09-23T00:44:40;5.40;12.20
7684;DHT22;3884;48.616;12.872;2022-09-23T00:47:12;5.40;1.00
7684;DHT22;3884;48.616;12.872;2022-09-23T00:49:40;5.40;1.00
7684;DHT22;3884;48.616;12.872;2022-09-23T00:52:12;5.20;1.00
7684;DHT22;3884;48.616;12.872;2022-09-23T00:54:41;5.20;1.00
7684;DHT22;3884;48.616;12.872;2022-09-23T00:57:09;5.20;13.20
7684;DHT22;3884;48.616;12.872;2022-09-23T00:59:36;5.10;99.90
7684;DHT22;3884;48.616;12.872;2022-09-23T01:02:03;5.10;99.90
7684;DHT22;3884;48.616;12.872;2022-09-23T01:04:33;5.10;99.90
7684;DHT22;3884;48.616;12.872;2022-09-23T01:07:00;5.10;99.90
7684;DHT22;3884;48.616;12.872;2022-09-23T01:09:27;5.10;91.00
7684;DHT22;3884;48.616;12.872;2022-09-23T01:12:03;5.00;1.00
7684;DHT22;3884;48.616;12.872;2022-09-23T01:14:39;5.00;1.00
7684;DHT22;3884;48.616;12.872;2022-09-23T01:17:12;4.90;1.00
7684;DHT22;3884;48.616;12.872;2022-09-23T01:20:16;4.80;1.00
7684;DHT22;3884;48.616;12.872;2022-09-23T01:22:50;4.80;35.30
7684;DHT22;3884;48.616;12.872;2022-09-23T01:25:36;4.80;26.30
7684;DHT22;3884;48.616;12.872;2022-09-23T01:28:19;4.80;83.00
7684;DHT22;3884;48.616;12.872;2022-09-23T01:30:57;4.80;1.00
7684;DHT22;3884;48.616;12.872;2022-09-23T01:33:35;4.80;24.40
7684;DHT22;3884;48.616;12.872;2022-09-23T01:36:11;4.80;91.80
7684;DHT22;3884;48.616;12.872;2022-09-23T01:38:44;4.80;50.70
7684;DHT22;3884;48.616;12.872;2022-09-23T01:41:29;4.70;1.00
7684;DHT22;3884;48.616;12.872;2022-09-23T01:44:04;4.70;1.00
7684;DHT22;3884;48.616;12.872;2022-09-23T01:46:40;4.70;99.90
7684;DHT22;3884;48.616;12.872;2022-09-23T01:49:12;4.70;99.90
7684;DHT22;3884;48.616;12.872;2022-09-23T01:51:43;4.50;99.90
7684;DHT22;3884;48.616;12.872;2022-09-23T01:54:14;4.40;99.90
7684;DHT22;3884;48.616;12.872;2022-09-23T01:56:46;4.40;99.90
7684;DHT22;3884;48.616;12.872;2022-09-23T01:59:18;4.40;99.90
7684;DHT22;3884;48.616;12.872;2022-09-23T02:01:54;4.50;99.90
7684;DHT22;3884;48.616;12.872;2022-09-23T02:04:26;4.50;99.90
7684;DHT22;3884;48.616;12.872;2022-09-23T02:06:59;4.50;99.90
7684;DHT22;3884;48.616;12.872;2022-09-23T02:09:32;4.60;99.90
7684;DHT22;3884;48.616;12.872;2022-09-23T02:12:04;4.60;99.90
7684;DHT22;3884;48.616;12.872;2022-09-23T02:14:37;4.60;99.90
7684;DHT22;3884;48.616;12.872;2022-09-23T02:17:09;4.70;99.90
7684;DHT22;3884;48.616;12.872;2022-09-23T02:19:41;4.70;99.90
7684;DHT22;3884;48.616;12.872;2022-09-23T02:22:14;4.70;99.90
7684;DHT22;3884;48.616;12.872;2022-09-23T02:24:42;4.60;99.90
7684;DHT22;3884;48.616;12.872;2022-09-23T02:27:15;4.50;99.90
7684;DHT22;3884;48.616;12.872;2022-09-23T02:29:49;4.50;99.90
7684;DHT22;3884;48.616;12.872;2022-09-23T02:32:23;4.60;99.90
7684;DHT22;3884;48.616;12.872;2022-09-23T02:35:00;4.60;99.90
7684;DHT22;3884;48.616;12.872;2022-09-23T02:37:35;4.60;99.90
7684;DHT22;3884;48.616;12.872;2022-09-23T02:40:13;4.50;99.90
7684;DHT22;3884;48.616;12.872;2022-09-23T02:42:49;4.30;99.90
7684;DHT22;3884;48.616;12.872;2022-09-23T02:45:18;4.40;99.90
7684;DHT22;3884;48.616;12.872;2022-09-23T02:47:49;4.40;99.90
7684;DHT22;3884;48.616;12.872;2022-09-23T02:50:18;4.30;99.90
7684;DHT22;3884;48.616;12.872;2022-09-23T02:52:47;4.30;99.90
7684;DHT22;3884;48.616;12.872;2022-09-23T02:55:16;4.30;99.90
7684;DHT22;3884;48.616;12.872;2022-09-23T02:57:44;4.20;99.90
7684;DHT22;3884;48.616;12.872;2022-09-23T03:00:13;4.30;99.90
7684;DHT22;3884;48.616;12.872;2022-09-23T03:02:56;4.20;99.90
7684;DHT22;3884;48.616;12.872;2022-09-23T03:05:27;4.10;99.90
7684;DHT22;3884;48.616;12.872;2022-09-23T03:08:09;4.10;99.90
7684;DHT22;3884;48.616;12.872;2022-09-23T03:10:44;4.10;99.90
7684;DHT22;3884;48.616;12.872;2022-09-23T03:13:17;4.10;99.90
7684;DHT22;3884;48.616;12.872;2022-09-23T03:15:50;4.00;99.90
7684;DHT22;3884;48.616;12.872;2022-09-23T03:18:30;4.00;99.90
7684;DHT22;3884;48.616;12.872;2022-09-23T03:21:02;4.00;99.90
7684;DHT22;3884;48.616;12.872;2022-09-23T03:23:34;4.00;99.90
7684;DHT22;3884;48.616;12.872;2022-09-23T03:26:07;4.00;99.90
7684;DHT22;3884;48.616;12.872;2022-09-23T03:28:36;3.80;99.90
7684;DHT22;3884;48.616;12.872;2022-09-23T03:31:04;3.80;99.90
7684;DHT22;3884;48.616;12.872;2022-09-23T03:33:33;3.70;99.90
7684;DHT22;3884;48.616;12.872;2022-09-23T03:36:04;3.70;99.90
7684;DHT22;3884;48.616;12.872;2022-09-23T03:38:58;3.70;99.90
7684;DHT22;3884;48.616;12.872;2022-09-23T03:41:31;3.70;99.90
7684;DHT22;3884;48.616;12.872;2022-09-23T03:44:01;3.70;99.90
7684;DHT22;3884;48.616;12.872;2022-09-23T03:46:28;3.70;99.90
7684;DHT22;3884;48.616;12.872;2022-09-23T03:49:08;3.70;99.90
7684;DHT22;3884;48.616;12.872;2022-09-23T03:51:36;3.80;99.90
7684;DHT22;3884;48.616;12.872;2022-09-23T03:54:03;3.50;99.90
7684;DHT22;3884;48.616;12.872;2022-09-23T03:56:30;3.60;99.90
7684;DHT22;3884;48.616;12.872;2022-09-23T03:58:56;3.50;99.90
7684;DHT22;3884;48.616;12.872;2022-09-23T04:01:23;3.60;99.90
7684;DHT22;3884;48.616;12.872;2022-09-23T04:03:51;3.60;99.90
7684;DHT22;3884;48.616;12.872;2022-09-23T04:06:20;3.50;99.90
7684;DHT22;3884;48.616;12.872;2022-09-23T04:08:47;3.60;99.90
7684;DHT22;3884;48.616;12.872;2022-09-23T04:11:14;3.50;99.90
7684;DHT22;3884;48.616;12.872;2022-09-23T04:13:41;3.60;99.90
7684;DHT22;3884;48.616;12.872;2022-09-23T04:16:08;3.60;99.90
7684;DHT22;3884;48.616;12.872;2022-09-23T04:18:35;3.60;99.90
7684;DHT22;3884;48.616;12.872;2022-09-23T04:21:01;3.50;99.90
7684;DHT22;3884;48.616;12.872;2022-09-23T04:23:30;3.60;99.90
7684;DHT22;3884;48.616;12.872;2022-09-23T04:25:56;3.50;99.90
7684;DHT22;3884;48.616;12.872;2022-09-23T04:28:23;3.50;99.90
7684;DHT22;3884;48.616;12.872;2022-09-23T04:30:50;3.50;99.90
7684;DHT22;3884;48.616;12.872;2022-09-23T04:33:18;3.50;99.90
7684;DHT22;3884;48.616;12.872;2022-09-23T04:35:49;3.40;99.90
7684;DHT22;3884;48.616;12.872;2022-09-23T04:38:16;3.40;99.90
7684;DHT22;3884;48.616;12.872;2022-09-23T04:40:44;3.20;99.90
7684;DHT22;3884;48.616;12.872;2022-09-23T04:43:11;3.30;99.90
7684;DHT22;3884;48.616;12.872;2022-09-23T04:45:39;3.20;99.90
7684;DHT22;3884;48.616;12.872;2022-09-23T04:48:06;3.30;99.90
7684;DHT22;3884;48.616;12.872;2022-09-23T04:50:34;3.30;99.90
7684;DHT22;3884;48.616;12.872;2022-09-23T04:53:01;3.30;99.90
7684;DHT22;3884;48.616;12.872;2022-09-23T04:55:28;3.10;99.90
7684;DHT22;3884;48.616;12.872;2022-09-23T04:57:56;3.00;99.90
7684;DHT22;3884;48.616;12.872;2022-09-23T05:00:23;3.00;99.90
7684;DHT22;3884;48.616;12.872;2022-09-23T05:02:51;3.10;99.90
7684;DHT22;3884;48.616;12.872;2022-09-23T05:05:18;3.10;99.90
7684;DHT22;3884;48.616;12.872;2022-09-23T05:07:46;3.00;99.90
7684;DHT22;3884;48.616;12.872;2022-09-23T05:10:13;2.90;99.90
7684;DHT22;3884;48.616;12.872;2022-09-23T05:12:39;2.90;99.90
7684;DHT22;3884;48.616;12.872;2022-09-23T05:15:08;2.90;99.90
7684;DHT22;3884;48.616;12.872;2022-09-23T05:17:35;3.00;99.90
7684;DHT22;3884;48.616;12.872;2022-09-23T05:20:03;3.00;99.90
7684;DHT22;3884;48.616;12.872;2022-09-23T05:22:30;3.00;99.90
7684;DHT22;3884;48.616;12.872;2022-09-23T05:24:57;3.00;99.90
7684;DHT22;3884;48.616;12.872;2022-09-23T05:27:24;3.00;99.90
7684;DHT22;3884;48.616;12.872;2022-09-23T05:29:51;3.10;99.90
7684;DHT22;3884;48.616;12.872;2022-09-23T05:32:19;3.10;99.90
7684;DHT22;3884;48.616;12.872;2022-09-23T05:34:46;3.20;99.90
7684;DHT22;3884;48.616;12.872;2022-09-23T05:37:13;3.20;99.90
7684;DHT22;3884;48.616;12.872;2022-09-23T05:39:40;3.20;99.90
7684;DHT22;3884;48.616;12.872;2022-09-23T05:42:07;3.20;99.90
7684;DHT22;3884;48.616;12.872;2022-09-23T05:44:34;3.30;99.90
7684;DHT22;3884;48.616;12.872;2022-09-23T05:47:01;3.30;99.90
7684;DHT22;3884;48.616;12.872;2022-09-23T05:49:29;3.30;99.90
7684;DHT22;3884;48.616;12.872;2022-09-23T05:51:56;3.40;99.90
7684;DHT22;3884;48.616;12.872;2022-09-23T05:54:23;3.30;99.90
7684;DHT22;3884;48.616;12.872;2022-09-23T05:56:50;3.40;99.90
7684;DHT22;3884;48.616;12.872;2022-09-23T05:59:17;3.40;99.90
7684;DHT22;3884;48.616;12.872;2022-09-23T06:01:44;3.50;99.90
7684;DHT22;3884;48.616;12.872;2022-09-23T06:04:11;3.50;99.90
7684;DHT22;3884;48.616;12.872;2022-09-23T06:06:40;3.60;99.90
7684;DHT22;3884;48.616;12.872;2022-09-23T06:09:10;3.70;99.90
7684;DHT22;3884;48.616;12.872;2022-09-23T06:11:38;3.80;99.90
7684;DHT22;3884;48.616;12.872;2022-09-23T06:14:05;3.80;99.90
7684;DHT22;3884;48.616;12.872;2022-09-23T06:16:34;3.80;99.90
7684;DHT22;3884;48.616;12.872;2022-09-23T06:19:02;3.90;99.90
7684;DHT22;3884;48.616;12.872;2022-09-23T06:21:31;3.90;99.90
7684;DHT22;3884;48.616;12.872;2022-09-23T06:24:00;4.00;99.90
7684;DHT22;3884;48.616;12.872;2022-09-23T06:26:27;4.10;99.90
7684;DHT22;3884;48.616;12.872;2022-09-23T06:28:58;4.20;99.90
7684;DHT22;3884;48.616;12.872;2022-09-23T06:31:27;4.30;99.90
7684;DHT22;3884;48.616;12.872;2022-09-23T06:33:54;4.40;99.90
7684;DHT22;3884;48.616;12.872;2022-09-23T06:36:21;4.50;99.90
7684;DHT22;3884;48.616;12.872;2022-09-23T06:38:48;4.60;99.90
7684;DHT22;3884;48.616;12.872;2022-09-23T06:41:16;4.70;99.90
7684;DHT22;3884;48.616;12.872;2022-09-23T06:43:45;4.90;99.90
7684;DHT22;3884;48.616;12.872;2022-09-23T06:46:14;5.20;99.90
7684;DHT22;3884;48.616;12.872;2022-09-23T06:48:41;5.60;99.90
7684;DHT22;3884;48.616;12.872;2022-09-23T06:51:10;5.80;99.90
7684;DHT22;3884;48.616;12.872;2022-09-23T06:53:44;5.90;99.90
7684;DHT22;3884;48.616;12.872;2022-09-23T06:56:11;6.30;99.90
7684;DHT22;3884;48.616;12.872;2022-09-23T06:58:40;6.70;99.90
7684;DHT22;3884;48.616;12.872;2022-09-23T07:01:09;6.90;99.90
7684;DHT22;3884;48.616;12.872;2022-09-23T07:03:37;6.80;99.90
7684;DHT22;3884;48.616;12.872;2022-09-23T07:06:05;6.70;99.90
7684;DHT22;3884;48.616;12.872;2022-09-23T07:08:33;6.60;99.90
7684;DHT22;3884;48.616;12.872;2022-09-23T07:11:02;6.70;99.90
7684;DHT22;3884;48.616;12.872;2022-09-23T07:13:30;6.70;99.90
7684;DHT22;3884;48.616;12.872;2022-09-23T07:16:00;6.80;99.90
7684;DHT22;3884;48.616;12.872;2022-09-23T07:18:29;7.10;99.90
7684;DHT22;3884;48.616;12.872;2022-09-23T07:20:56;7.20;99.90
7684;DHT22;3884;48.616;12.872;2022-09-23T07:23:23;7.50;99.90
7684;DHT22;3884;48.616;12.872;2022-09-23T07:25:51;7.70;99.90
7684;DHT22;3884;48.616;12.872;2022-09-23T07:28:18;7.90;99.90
7684;DHT22;3884;48.616;12.872;2022-09-23T07:30:45;8.10;99.90
7684;DHT22;3884;48.616;12.872;2022-09-23T07:33:13;8.30;99.90
7684;DHT22;3884;48.616;12.872;2022-09-23T07:35:41;8.50;99.90
7684;DHT22;3884;48.616;12.872;2022-09-23T07:38:09;8.70;99.90
7684;DHT22;3884;48.616;12.872;2022-09-23T07:40:36;9.10;99.90
7684;DHT22;3884;48.616;12.872;2022-09-23T07:43:04;9.30;99.90
7684;DHT22;3884;48.616;12.872;2022-09-23T07:45:31;9.50;99.90
7684;DHT22;3884;48.616;12.872;2022-09-23T07:47:59;9.60;99.90
7684;DHT22;3884;48.616;12.872;2022-09-23T07:50:27;9.90;99.90
7684;DHT22;3884;48.616;12.872;2022-09-23T07:52:56;10.10;99.90
7684;DHT22;3884;48.616;12.872;2022-09-23T07:55:23;10.30;99.90
7684;DHT22;3884;48.616;12.872;2022-09-23T07:57:50;10.30;99.90
7684;DHT22;3884;48.616;12.872;2022-09-23T08:00:17;10.40;99.90
7684;DHT22;3884;48.616;12.872;2022-09-23T08:02:44;10.50;99.90
7684;DHT22;3884;48.616;12.872;2022-09-23T08:05:11;10.60;99.90
7684;DHT22;3884;48.616;12.872;2022-09-23T08:07:39;10.70;99.90
7684;DHT22;3884;48.616;12.872;2022-09-23T08:10:07;10.90;99.90
7684;DHT22;3884;48.616;12.872;2022-09-23T08:12:34;10.90;99.90
7684;DHT22;3884;48.616;12.872;2022-09-23T08:15:01;11.00;46.80
7684;DHT22;3884;48.616;12.872;2022-09-23T08:17:28;11.20;62.80
7684;DHT22;3884;48.616;12.872;2022-09-23T08:19:55;11.20;1.10
7684;DHT22;3884;48.616;12.872;2022-09-23T08:22:22;11.40;1.00
7684;DHT22;3884;48.616;12.872;2022-09-23T08:24:50;11.40;1.00
7684;DHT22;3884;48.616;12.872;2022-09-23T08:27:17;11.40;1.00
7684;DHT22;3884;48.616;12.872;2022-09-23T08:29:44;11.60;1.00
7684;DHT22;3884;48.616;12.872;2022-09-23T08:32:12;11.90;99.90
7684;DHT22;3884;48.616;12.872;2022-09-23T08:34:39;11.70;1.00
7684;DHT22;3884;48.616;12.872;2022-09-23T08:37:08;12.00;77.30
7684;DHT22;3884;48.616;12.872;2022-09-23T08:39:36;12.10;99.90
7684;DHT22;3884;48.616;12.872;2022-09-23T08:42:13;12.40;1.00
7684;DHT22;3884;48.616;12.872;2022-09-23T08:44:46;12.50;99.90
7684;DHT22;3884;48.616;12.872;2022-09-23T08:47:18;12.50;99.90
7684;DHT22;3884;48.616;12.872;2022-09-23T08:49:52;12.60;1.00
7684;DHT22;3884;48.616;12.872;2022-09-23T08:52:28;12.70;93.00
7684;DHT22;3884;48.616;12.872;2022-09-23T08:54:58;12.70;99.90
7684;DHT22;3884;48.616;12.872;2022-09-23T08:57:37;12.90;1.00
7684;DHT22;3884;48.616;12.872;2022-09-23T09:00:06;12.80;1.00
7684;DHT22;3884;48.616;12.872;2022-09-23T09:02:39;12.90;1.00
7684;DHT22;3884;48.616;12.872;2022-09-23T09:05:08;13.00;1.00
7684;DHT22;3884;48.616;12.872;2022-09-23T09:07:38;13.20;99.90
7684;DHT22;3884;48.616;12.872;2022-09-23T09:10:14;13.20;1.00
7684;DHT22;3884;48.616;12.872;2022-09-23T09:12:45;13.40;99.90
7684;DHT22;3884;48.616;12.872;2022-09-23T09:15:14;13.40;99.90
7684;DHT22;3884;48.616;12.872;2022-09-23T09:17:47;13.50;1.00
7684;DHT22;3884;48.616;12.872;2022-09-23T09:20:21;13.70;1.00
7684;DHT22;3884;48.616;12.872;2022-09-23T09:22:53;13.80;1.00
7684;DHT22;3884;48.616;12.872;2022-09-23T09:25:35;13.90;99.90
7684;DHT22;3884;48.616;12.872;2022-09-23T09:28:12;14.10;99.90
7684;DHT22;3884;48.616;12.872;2022-09-23T09:30:41;14.00;99.90
7684;DHT22;3884;48.616;12.872;2022-09-23T09:33:13;14.00;99.90
7684;DHT22;3884;48.616;12.872;2022-09-23T09:36:05;14.10;1.00
7684;DHT22;3884;48.616;12.872;2022-09-23T09:38:33;14.10;1.00
7684;DHT22;3884;48.616;12.872;2022-09-23T09:41:10;14.00;99.90
7684;DHT22;3884;48.616;12.872;2022-09-23T09:43:39;14.10;22.70
7684;DHT22;3884;48.616;12.872;2022-09-23T09:46:15;14.00;1.00
7684;DHT22;3884;48.616;12.872;2022-09-23T09:48:53;14.20;1.00
7684;DHT22;3884;48.616;12.872;2022-09-23T09:51:22;14.20;1.00
7684;DHT22;3884;48.616;12.872;2022-09-23T09:53:50;14.00;68.70
7684;DHT22;3884;48.616;12.872;2022-09-23T09:56:19;14.00;1.00
7684;DHT22;3884;48.616;12.872;2022-09-23T09:58:52;14.50;1.00
7684;DHT22;3884;48.616;12.872;2022-09-23T10:01:21;14.60;1.00
7684;DHT22;3884;48.616;12.872;2022-09-23T10:03:50;14.70;1.00
7684;DHT22;3884;48.616;12.872;2022-09-23T10:06:21;14.60;1.00
7684;DHT22;3884;48.616;12.872;2022-09-23T10:11:40;14.40;1.00
7684;DHT22;3884;48.616;12.872;2022-09-23T10:14:14;14.40;1.00
7684;DHT22;3884;48.616;12.872;2022-09-23T10:16:43;14.60;1.00
7684;DHT22;3884;48.616;12.872;2022-09-23T10:19:16;14.60;1.00
7684;DHT22;3884;48.616;12.872;2022-09-23T10:21:51;14.40;1.00
7684;DHT22;3884;48.616;12.872;2022-09-23T10:24:21;14.40;1.00
7684;DHT22;3884;48.616;12.872;2022-09-23T10:26:55;14.40;1.00
7684;DHT22;3884;48.616;12.872;2022-09-23T10:29:29;14.50;1.00
7684;DHT22;3884;48.616;12.872;2022-09-23T10:32:22;14.60;1.00
7684;DHT22;3884;48.616;12.872;2022-09-23T10:34:52;14.70;1.00
7684;DHT22;3884;48.616;12.872;2022-09-23T10:37:29;14.60;1.00
7684;DHT22;3884;48.616;12.872;2022-09-23T10:39:57;14.80;1.00
7684;DHT22;3884;48.616;12.872;2022-09-23T10:42:55;14.90;1.00
7684;DHT22;3884;48.616;12.872;2022-09-23T10:45:47;15.00;1.00
7684;DHT22;3884;48.616;12.872;2022-09-23T10:48:39;15.00;1.00
7684;DHT22;3884;48.616;12.872;2022-09-23T10:51:18;15.10;1.00
7684;DHT22;3884;48.616;12.872;2022-09-23T10:53:54;15.10;1.00
7684;DHT22;3884;48.616;12.872;2022-09-23T10:56:29;14.80;1.00
7684;DHT22;3884;48.616;12.872;2022-09-23T10:59:09;15.00;1.00
7684;DHT22;3884;48.616;12.872;2022-09-23T11:01:46;15.00;1.00
7684;DHT22;3884;48.616;12.872;2022-09-23T11:04:36;15.10;1.00
7684;DHT22;3884;48.616;12.872;2022-09-23T11:07:18;15.00;99.90
7684;DHT22;3884;48.616;12.872;2022-09-23T11:12:49;15.10;99.90
7684;DHT22;3884;48.616;12.872;2022-09-23T11:15:28;14.90;99.90
7684;DHT22;3884;48.616;12.872;2022-09-23T11:18:17;15.00;99.90
7684;DHT22;3884;48.616;12.872;2022-09-23T11:20:56;15.10;99.90
7684;DHT22;3884;48.616;12.872;2022-09-23T11:23:45;15.20;99.90
7684;DHT22;3884;48.616;12.872;2022-09-23T11:26:23;15.20;99.90
7684;DHT22;3884;48.616;12.872;2022-09-23T11:29:13;15.30;99.90
7684;DHT22;3884;48.616;12.872;2022-09-23T11:31:50;15.30;99.90
7684;DHT22;3884;48.616;12.872;2022-09-23T11:34:47;15.20;99.90
7684;DHT22;3884;48.616;12.872;2022-09-23T11:37:23;15.60;99.90
7684;DHT22;3884;48.616;12.872;2022-09-23T11:39:58;15.50;99.90
7684;DHT22;3884;48.616;12.872;2022-09-23T11:42:29;15.50;99.90
7684;DHT22;3884;48.616;12.872;2022-09-23T11:45:00;15.60;99.90
7684;DHT22;3884;48.616;12.872;2022-09-23T11:47:30;15.60;99.90
7684;DHT22;3884;48.616;12.872;2022-09-23T11:50:05;15.50;99.90
7684;DHT22;3884;48.616;12.872;2022-09-23T11:52:41;15.70;99.90
7684;DHT22;3884;48.616;12.872;2022-09-23T11:55:14;15.80;99.90
7684;DHT22;3884;48.616;12.872;2022-09-23T11:57:45;15.80;99.90
7684;DHT22;3884;48.616;12.872;2022-09-23T12:00:17;15.80;99.90
7684;DHT22;3884;48.616;12.872;2022-09-23T12:02:52;15.70;99.90
7684;DHT22;3884;48.616;12.872;2022-09-23T12:05:25;15.80;99.90
7684;DHT22;3884;48.616;12.872;2022-09-23T12:07:56;15.90;99.90
7684;DHT22;3884;48.616;12.872;2022-09-23T12:10:37;16.00;99.90
7684;DHT22;3884;48.616;12.872;2022-09-23T12:13:11;16.00;99.90
7684;DHT22;3884;48.616;12.872;2022-09-23T12:15:49;16.00;99.90
7684;DHT22;3884;48.616;12.872;2022-09-23T12:18:31;16.10;99.90
7684;DHT22;3884;48.616;12.872;2022-09-23T12:21:23;16.10;99.90
7684;DHT22;3884;48.616;12.872;2022-09-23T12:24:13;16.20;99.90
7684;DHT22;3884;48.616;12.872;2022-09-23T12:26:43;16.30;99.90
7684;DHT22;3884;48.616;12.872;2022-09-23T12:29:12;16.40;99.90
7684;DHT22;3884;48.616;12.872;2022-09-23T12:31:40;16.40;99.90
7684;DHT22;3884;48.616;12.872;2022-09-23T12:34:21;16.30;99.90
7684;DHT22;3884;48.616;12.872;2022-09-23T12:36:49;16.20;99.90
7684;DHT22;3884;48.616;12.872;2022-09-23T12:39:22;16.10;99.90
7684;DHT22;3884;48.616;12.872;2022-09-23T12:41:56;16.10;99.90
7684;DHT22;3884;48.616;12.872;2022-09-23T12:44:32;16.30;99.90
7684;DHT22;3884;48.616;12.872;2022-09-23T12:47:29;16.50;99.90
7684;DHT22;3884;48.616;12.872;2022-09-23T12:50:21;16.60;99.90
7684;DHT22;3884;48.616;12.872;2022-09-23T12:56:13;16.50;99.90
7684;DHT22;3884;48.616;12.872;2022-09-23T12:58:59;16.60;99.90
7684;DHT22;3884;48.616;12.872;2022-09-23T13:01:27;16.60;99.90
7684;DHT22;3884;48.616;12.872;2022-09-23T13:03:55;16.80;99.90
7684;DHT22;3884;48.616;12.872;2022-09-23T13:06:42;16.90;99.90
7684;DHT22;3884;48.616;12.872;2022-09-23T13:09:14;16.90;99.90
7684;DHT22;3884;48.616;12.872;2022-09-23T13:11:45;17.10;94.40
7684;DHT22;3884;48.616;12.872;2022-09-23T13:14:15;16.90;99.90
7684;DHT22;3884;48.616;12.872;2022-09-23T13:16:46;16.90;99.90
7684;DHT22;3884;48.616;12.872;2022-09-23T13:19:41;16.80;99.90
7684;DHT22;3884;48.616;12.872;2022-09-23T13:22:09;16.80;99.90
7684;DHT22;3884;48.616;12.872;2022-09-23T13:24:44;16.90;98.90
7684;DHT22;3884;48.616;12.872;2022-09-23T13:27:21;17.10;91.70
7684;DHT22;3884;48.616;12.872;2022-09-23T13:29:52;17.10;64.70
7684;DHT22;3884;48.616;12.872;2022-09-23T13:32:25;17.00;99.90
7684;DHT22;3884;48.616;12.872;2022-09-23T13:34:57;17.10;99.90
7684;DHT22;3884;48.616;12.872;2022-09-23T13:37:30;17.10;98.00
7684;DHT22;3884;48.616;12.872;2022-09-23T13:40:08;17.00;82.10
7684;DHT22;3884;48.616;12.872;2022-09-23T13:42:37;17.10;99.90
7684;DHT22;3884;48.616;12.872;2022-09-23T13:45:13;17.30;93.80
7684;DHT22;3884;48.616;12.872;2022-09-23T13:47:42;17.40;95.50
7684;DHT22;3884;48.616;12.872;2022-09-23T13:50:15;17.60;87.80
7684;DHT22;3884;48.616;12.872;2022-09-23T13:52:42;17.30;99.90
7684;DHT22;3884;48.616;12.872;2022-09-23T13:55:23;17.30;96.30
7684;DHT22;3884;48.616;12.872;2022-09-23T13:57:58;16.90;99.90
7684;DHT22;3884;48.616;12.872;2022-09-23T14:00:25;16.80;99.90
7684;DHT22;3884;48.616;12.872;2022-09-23T14:02:52;16.70;99.90
7684;DHT22;3884;48.616;12.872;2022-09-23T14:05:22;16.60;99.90
7684;DHT22;3884;48.616;12.872;2022-09-23T14:07:50;16.70;99.90
7684;DHT22;3884;48.616;12.872;2022-09-23T14:10:19;16.90;92.20
7684;DHT22;3884;48.616;12.872;2022-09-23T14:12:48;17.30;94.80
7684;DHT22;3884;48.616;12.872;2022-09-23T14:15:18;17.60;96.80
7684;DHT22;3884;48.616;12.872;2022-09-23T14:17:47;17.30;99.90
7684;DHT22;3884;48.616;12.872;2022-09-23T14:20:16;17.20;99.90
7684;DHT22;3884;48.616;12.872;2022-09-23T14:22:44;17.20;92.60
7684;DHT22;3884;48.616;12.872;2022-09-23T14:25:12;17.30;89.80
7684;DHT22;3884;48.616;12.872;2022-09-23T14:27:41;17.60;99.90
7684;DHT22;3884;48.616;12.872;2022-09-23T14:30:13;17.90;93.20
7684;DHT22;3884;48.616;12.872;2022-09-23T14:32:41;18.00;84.00
7684;DHT22;3884;48.616;12.872;2022-09-23T14:35:18;18.00;40.50
7684;DHT22;3884;48.616;12.872;2022-09-23T14:37:47;18.20;97.20
7684;DHT22;3884;48.616;12.872;2022-09-23T14:40:34;18.20;69.60
7684;DHT22;3884;48.616;12.872;2022-09-23T14:43:05;18.50;93.40
7684;DHT22;3884;48.616;12.872;2022-09-23T14:45:34;18.50;93.00
7684;DHT22;3884;48.616;12.872;2022-09-23T14:48:05;18.60;87.40
7684;DHT22;3884;48.616;12.872;2022-09-23T14:50:32;18.50;55.00
7684;DHT22;3884;48.616;12.872;2022-09-23T14:55:48;18.90;75.60
7684;DHT22;3884;48.616;12.872;2022-09-23T14:58:19;19.00;67.80
7684;DHT22;3884;48.616;12.872;2022-09-23T15:00:50;18.90;62.00
7684;DHT22;3884;48.616;12.872;2022-09-23T15:03:20;19.30;36.30
7684;DHT22;3884;48.616;12.872;2022-09-23T15:05:47;18.80;28.20
7684;DHT22;3884;48.616;12.872;2022-09-23T15:08:19;18.40;43.70
7684;DHT22;3884;48.616;12.872;2022-09-23T15:10:47;18.20;50.70
7684;DHT22;3884;48.616;12.872;2022-09-23T15:13:16;18.30;65.90
7684;DHT22;3884;48.616;12.872;2022-09-23T15:15:44;18.70;61.70
7684;DHT22;3884;48.616;12.872;2022-09-23T15:18:16;18.80;34.90
7684;DHT22;3884;48.616;12.872;2022-09-23T15:20:50;19.30;29.70
7684;DHT22;3884;48.616;12.872;2022-09-23T15:23:32;19.40;46.90
7684;DHT22;3884;48.616;12.872;2022-09-23T15:26:03;19.30;21.20
7684;DHT22;3884;48.616;12.872;2022-09-23T15:28:30;18.60;48.10
7684;DHT22;3884;48.616;12.872;2022-09-23T15:30:57;18.40;49.20
7684;DHT22;3884;48.616;12.872;2022-09-23T15:33:25;18.40;69.00
7684;DHT22;3884;48.616;12.872;2022-09-23T15:35:54;18.40;92.10
7684;DHT22;3884;48.616;12.872;2022-09-23T15:38:22;17.90;96.20
7684;DHT22;3884;48.616;12.872;2022-09-23T15:40:58;17.90;99.90
7684;DHT22;3884;48.616;12.872;2022-09-23T15:43:25;17.60;99.90
7684;DHT22;3884;48.616;12.872;2022-09-23T15:45:54;17.60;99.90
7684;DHT22;3884;48.616;12.872;2022-09-23T15:48:24;17.30;99.90
7684;DHT22;3884;48.616;12.872;2022-09-23T15:50:51;17.00;99.90
7684;DHT22;3884;48.616;12.872;2022-09-23T15:53:21;17.10;99.90
7684;DHT22;3884;48.616;12.872;2022-09-23T15:55:49;17.40;99.90
7684;DHT22;3884;48.616;12.872;2022-09-23T15:58:16;17.20;99.90
7684;DHT22;3884;48.616;12.872;2022-09-23T16:00:43;17.10;99.90
7684;DHT22;3884;48.616;12.872;2022-09-23T16:03:13;17.30;99.90
7684;DHT22;3884;48.616;12.872;2022-09-23T16:05:42;17.20;99.90
7684;DHT22;3884;48.616;12.872;2022-09-23T16:08:11;17.00;99.90
7684;DHT22;3884;48.616;12.872;2022-09-23T16:10:40;16.70;99.90
7684;DHT22;3884;48.616;12.872;2022-09-23T16:13:11;16.70;99.90
7684;DHT22;3884;48.616;12.872;2022-09-23T16:15:39;16.80;99.90
7684;DHT22;3884;48.616;12.872;2022-09-23T16:18:06;16.70;99.90
7684;DHT22;3884;48.616;12.872;2022-09-23T16:20:35;16.40;99.90
7684;DHT22;3884;48.616;12.872;2022-09-23T16:23:04;16.30;99.90
7684;DHT22;3884;48.616;12.872;2022-09-23T16:25:33;16.20;99.90
7684;DHT22;3884;48.616;12.872;2022-09-23T16:28:03;16.10;99.90
7684;DHT22;3884;48.616;12.872;2022-09-23T16:30:32;15.90;1.00
7684;DHT22;3884;48.616;12.872;2022-09-23T16:32:59;15.90;1.00
7684;DHT22;3884;48.616;12.872;2022-09-23T16:35:27;15.80;1.00